createdAt,value
2023-05-17T00:00:25.583Z,100225.66
2023-05-17T00:02:51.977Z,100231.56
2023-05-17T00:05:18.541Z,100222.25
2023-05-17T00:07:47.064Z,100232.28
2023-05-17T00:10:13.524Z,100233.88
2023-05-17T00:12:40.209Z,100234.09
2023-05-17T00:15:06.971Z,100228.59
2023-05-17T00:17:33.611Z,100230.47
2023-05-17T00:20:00.056Z,100232.09
2023-05-17T00:22:26.451Z,100234.75
2023-05-17T00:24:52.839Z,100228.66
2023-05-17T00:27:19.195Z,100226.25
2023-05-17T00:29:45.648Z,100229.75
2023-05-17T00:32:12.037Z,100226.66
2023-05-17T00:34:38.430Z,100229.44
2023-05-17T00:37:04.924Z,100239.50
2023-05-17T00:39:31.325Z,100233.78
2023-05-17T00:41:57.716Z,100244.13
2023-05-17T00:44:24.096Z,100238.16
2023-05-17T00:46:50.529Z,100236.84
2023-05-17T00:49:17.394Z,100244.25
2023-05-17T00:51:44.555Z,100243.81
2023-05-17T00:54:11.247Z,100240.50
2023-05-17T00:56:38.788Z,100245.94
2023-05-17T00:59:06.607Z,100243.81
2023-05-17T01:01:35.477Z,100241.94
2023-05-17T01:04:02.226Z,100253.34
2023-05-17T01:06:28.713Z,100250.16
2023-05-17T01:08:55.324Z,100256.63
2023-05-17T01:11:40.370Z,100258.19
2023-05-17T01:14:34.038Z,100262.13
2023-05-17T01:17:07.142Z,100265.19
2023-05-17T01:19:48.893Z,100260.22
2023-05-17T01:22:26.948Z,100265.41
2023-05-17T01:25:04.559Z,100262.59
2023-05-17T01:27:31.949Z,100262.00
2023-05-17T01:30:00.788Z,100265.75
2023-05-17T01:32:28.377Z,100255.97
2023-05-17T01:34:54.808Z,100269.75
2023-05-17T01:37:21.244Z,100268.81
2023-05-17T01:39:48.046Z,100268.78
2023-05-17T01:42:22.282Z,100278.53
2023-05-17T01:45:03.037Z,100283.91
2023-05-17T01:47:43.382Z,100283.59
2023-05-17T01:50:14.772Z,100284.38
2023-05-17T01:52:52.632Z,100275.19
2023-05-17T01:55:26.603Z,100280.63
2023-05-17T01:57:55.744Z,100287.78
2023-05-17T02:00:24.521Z,100289.66
2023-05-17T02:02:51.347Z,100289.94
2023-05-17T02:05:19.144Z,100286.25
2023-05-17T02:07:45.674Z,100291.16
2023-05-17T02:10:12.367Z,100295.91
2023-05-17T02:12:42.261Z,100294.41
2023-05-17T02:15:11.219Z,100287.91
2023-05-17T02:17:40.339Z,100287.00
2023-05-17T02:20:08.441Z,100295.28
2023-05-17T02:22:35.442Z,100295.66
2023-05-17T02:25:02.380Z,100296.97
2023-05-17T02:27:28.820Z,100298.56
2023-05-17T02:29:55.335Z,100309.31
2023-05-17T02:32:21.721Z,100301.41
2023-05-17T02:34:48.233Z,100305.19
2023-05-17T02:37:14.589Z,100309.66
2023-05-17T02:39:43.219Z,100312.13
2023-05-17T02:42:09.610Z,100304.81
2023-05-17T02:44:35.986Z,100298.63
2023-05-17T02:47:02.516Z,100299.06
2023-05-17T02:49:29.788Z,100303.69
2023-05-17T02:51:56.185Z,100308.22
2023-05-17T02:54:22.598Z,100304.31
2023-05-17T02:56:49.143Z,100308.81
2023-05-17T02:59:17.045Z,100309.19
2023-05-17T03:01:43.467Z,100308.66
2023-05-17T03:04:10.043Z,100309.31
2023-05-17T03:06:37.867Z,100316.19
2023-05-17T03:09:04.277Z,100303.50
2023-05-17T03:11:30.726Z,100312.06
2023-05-17T03:13:58.395Z,100302.28
2023-05-17T03:16:27.108Z,100295.97
2023-05-17T03:18:54.079Z,100302.19
2023-05-17T03:21:20.539Z,100295.84
2023-05-17T03:23:48.107Z,100306.59
2023-05-17T03:26:14.500Z,100304.22
2023-05-17T03:28:46.468Z,100300.94
2023-05-17T03:31:13.151Z,100309.75
2023-05-17T03:33:39.681Z,100296.63
2023-05-17T03:36:07.217Z,100307.28
2023-05-17T03:38:33.629Z,100319.47
2023-05-17T03:41:00.250Z,100322.84
2023-05-17T03:43:26.792Z,100314.38
2023-05-17T03:45:53.293Z,100311.06
2023-05-17T03:48:19.816Z,100317.19
2023-05-17T03:50:46.355Z,100316.00
2023-05-17T03:53:12.793Z,100321.88
2023-05-17T03:55:39.155Z,100328.16
2023-05-17T03:58:07.399Z,100313.53
2023-05-17T04:00:33.817Z,100312.66
2023-05-17T04:03:07.081Z,100321.31
2023-05-17T04:05:33.531Z,100322.16
2023-05-17T04:08:00.481Z,100321.06
2023-05-17T04:10:27.016Z,100332.13
2023-05-17T04:12:53.809Z,100339.84
2023-05-17T04:15:21.931Z,100340.88
2023-05-17T04:17:48.742Z,100332.38
2023-05-17T04:20:15.359Z,100345.72
2023-05-17T04:22:42.233Z,100341.28
2023-05-17T04:25:10.601Z,100349.53
2023-05-17T04:27:38.014Z,100350.63
2023-05-17T04:30:07.607Z,100349.94
2023-05-17T04:32:34.642Z,100355.97
2023-05-17T04:35:02.251Z,100360.06
2023-05-17T04:37:28.766Z,100353.53
2023-05-17T04:39:59.667Z,100347.25
2023-05-17T04:42:28.215Z,100355.91
2023-05-17T04:44:57.723Z,100357.25
2023-05-17T04:47:24.484Z,100362.09
2023-05-17T04:49:51.894Z,100370.09
2023-05-17T04:52:18.336Z,100374.84
2023-05-17T04:54:45.667Z,100365.66
2023-05-17T04:57:12.232Z,100378.88
2023-05-17T05:00:12.451Z,100374.16
2023-05-17T05:02:42.169Z,100371.00
2023-05-17T05:05:10.724Z,100387.56
2023-05-17T05:07:39.693Z,100383.47
2023-05-17T05:10:07.711Z,100376.59
2023-05-17T05:12:34.594Z,100400.13
2023-05-17T05:15:01.370Z,100412.81
2023-05-17T05:17:31.031Z,100421.31
2023-05-17T05:19:57.754Z,100411.47
2023-05-17T05:22:24.542Z,100414.47
2023-05-17T05:24:51.294Z,100409.84
2023-05-17T05:27:18.323Z,100410.50
2023-05-17T05:29:46.111Z,100408.63
2023-05-17T05:32:12.949Z,100406.50
2023-05-17T05:34:45.224Z,100406.75
2023-05-17T05:37:11.586Z,100408.75
2023-05-17T05:39:38.097Z,100410.09
2023-05-17T05:42:04.885Z,100417.16
2023-05-17T05:44:31.585Z,100417.34
2023-05-17T05:46:59.912Z,100423.66
2023-05-17T05:49:26.435Z,100423.44
2023-05-17T05:51:53.633Z,100426.75
2023-05-17T05:54:20.552Z,100429.44
2023-05-17T05:56:47.179Z,100426.69
2023-05-17T05:59:15.910Z,100427.31
2023-05-17T06:01:42.335Z,100433.78
2023-05-17T06:04:08.683Z,100432.81
2023-05-17T06:06:35.740Z,100438.59
2023-05-17T06:09:02.531Z,100439.47
2023-05-17T06:11:28.890Z,100437.47
2023-05-17T06:13:55.402Z,100448.06
2023-05-17T06:16:21.759Z,100440.56
2023-05-17T06:18:50.335Z,100445.22
2023-05-17T06:21:18.347Z,100449.88
2023-05-17T06:23:44.672Z,100452.88
2023-05-17T06:26:11.159Z,100459.19
2023-05-17T06:28:38.059Z,100450.97
2023-05-17T06:31:04.579Z,100459.78
2023-05-17T06:33:31.066Z,100459.50
2023-05-17T06:35:58.154Z,100455.56
2023-05-17T06:38:24.962Z,100457.25
2023-05-17T06:40:53.725Z,100457.34
2023-05-17T06:43:20.584Z,100464.34
2023-05-17T06:45:47.004Z,100464.97
2023-05-17T06:48:13.655Z,100461.78
2023-05-17T06:50:40.121Z,100470.69
2023-05-17T06:53:06.872Z,100469.19
2023-05-17T06:55:33.272Z,100475.66
2023-05-17T06:58:00.176Z,100475.34
2023-05-17T07:00:26.868Z,100471.84
2023-05-17T07:02:53.399Z,100474.91
2023-05-17T07:05:24.020Z,100473.84
2023-05-17T07:07:50.568Z,100469.28
2023-05-17T07:10:16.990Z,100467.66
2023-05-17T07:12:43.421Z,100463.22
2023-05-17T07:15:10.450Z,100467.84
2023-05-17T07:17:37.581Z,100461.38
2023-05-17T07:20:06.038Z,100474.25
2023-05-17T07:22:32.531Z,100474.44
2023-05-17T07:24:58.945Z,100480.09
2023-05-17T07:27:25.730Z,100485.72
2023-05-17T07:29:52.212Z,100480.09
2023-05-17T07:32:18.590Z,100475.72
2023-05-17T07:34:45.953Z,100474.63
2023-05-17T07:37:12.347Z,100472.19
2023-05-17T07:39:38.912Z,100476.38
2023-05-17T07:42:05.894Z,100472.03
2023-05-17T07:44:32.314Z,100475.91
2023-05-17T07:46:58.718Z,100479.28
2023-05-17T07:49:27.354Z,100475.47
2023-05-17T07:51:55.351Z,100483.03
2023-05-17T07:54:29.592Z,100483.38
2023-05-17T07:56:56.263Z,100483.59
2023-05-17T07:59:23.119Z,100483.81
2023-05-17T08:01:50.167Z,100488.84
2023-05-17T08:04:16.614Z,100482.25
2023-05-17T08:06:45.920Z,100484.66
2023-05-17T08:09:12.529Z,100481.44
2023-05-17T08:11:45.635Z,100491.03
2023-05-17T08:14:13.786Z,100486.13
2023-05-17T08:16:41.078Z,100485.19
2023-05-17T08:19:07.627Z,100481.78
2023-05-17T08:21:34.790Z,100479.91
2023-05-17T08:24:02.137Z,100480.88
2023-05-17T08:26:30.434Z,100478.97
2023-05-17T08:28:56.774Z,100473.44
2023-05-17T08:31:23.167Z,100479.63
2023-05-17T08:33:49.569Z,100475.72
2023-05-17T08:36:16.060Z,100482.63
2023-05-17T08:38:42.835Z,100478.97
2023-05-17T08:41:09.508Z,100474.75
2023-05-17T08:43:36.069Z,100477.31
2023-05-17T08:46:04.073Z,100471.88
2023-05-17T08:48:36.682Z,100469.22
2023-05-17T08:51:03.398Z,100476.31
2023-05-17T08:53:29.852Z,100470.00
2023-05-17T08:56:00.370Z,100469.13
2023-05-17T08:58:32.595Z,100470.75
2023-05-17T09:01:07.198Z,100472.00
2023-05-17T09:03:35.661Z,100464.88
2023-05-17T09:06:03.515Z,100478.63
2023-05-17T09:08:30.212Z,100469.56
2023-05-17T09:10:59.248Z,100471.75
2023-05-17T09:13:26.127Z,100480.34
2023-05-17T09:15:54.061Z,100471.75
2023-05-17T09:18:30.091Z,100469.13
2023-05-17T09:21:02.764Z,100468.38
2023-05-17T09:23:33.344Z,100471.03
2023-05-17T09:26:07.921Z,100476.25
2023-05-17T09:28:42.170Z,100477.47
2023-05-17T09:31:09.760Z,100475.13
2023-05-17T09:33:44.768Z,100475.47
2023-05-17T09:36:23.711Z,100474.25
2023-05-17T09:38:55.356Z,100471.72
2023-05-17T09:41:22.828Z,100462.81
2023-05-17T09:43:49.334Z,100468.63
2023-05-17T09:46:15.952Z,100467.31
2023-05-17T09:48:44.285Z,100470.06
2023-05-17T09:51:11.082Z,100467.81
2023-05-17T09:53:39.996Z,100464.03
2023-05-17T09:56:07.311Z,100466.84
2023-05-17T09:58:37.102Z,100465.44
2023-05-17T10:01:05.927Z,100459.00
2023-05-17T10:03:35.745Z,100463.78
2023-05-17T10:06:07.153Z,100458.38
2023-05-17T10:08:34.166Z,100453.28
2023-05-17T10:11:07.697Z,100444.72
2023-05-17T10:13:40.600Z,100438.53
2023-05-17T10:16:07.357Z,100440.78
2023-05-17T10:18:34.376Z,100452.66
2023-05-17T10:21:02.021Z,100446.06
2023-05-17T10:23:29.920Z,100440.59
2023-05-17T10:25:56.398Z,100442.69
2023-05-17T10:28:23.118Z,100438.31
2023-05-17T10:30:51.328Z,100448.03
2023-05-17T10:33:18.716Z,100441.00
2023-05-17T10:35:47.052Z,100442.06
2023-05-17T10:38:13.581Z,100448.22
2023-05-17T10:40:42.249Z,100444.34
2023-05-17T10:43:10.516Z,100430.00
2023-05-17T10:45:37.825Z,100426.56
2023-05-17T10:48:08.269Z,100423.84
2023-05-17T10:50:45.037Z,100422.00
2023-05-17T10:53:20.621Z,100429.47
2023-05-17T10:55:47.306Z,100424.13
2023-05-17T10:58:21.289Z,100429.53
2023-05-17T11:00:55.659Z,100426.41
2023-05-17T11:03:29.951Z,100411.19
2023-05-17T11:06:23.522Z,100406.69
2023-05-17T11:09:19.312Z,100410.84
2023-05-17T11:12:06.151Z,100404.44
2023-05-17T11:14:44.797Z,100407.81
2023-05-17T11:17:19.261Z,100401.31
2023-05-17T11:19:58.824Z,100411.75
2023-05-17T11:22:27.426Z,100404.63
2023-05-17T11:24:57.041Z,100407.53
2023-05-17T11:27:27.410Z,100398.19
2023-05-17T11:30:00.113Z,100399.59
2023-05-17T11:32:32.007Z,100402.72
2023-05-17T11:35:01.582Z,100399.47
2023-05-17T11:37:29.737Z,100408.63
2023-05-17T11:40:07.743Z,100414.06
2023-05-17T11:42:36.282Z,100410.44
2023-05-17T11:45:04.070Z,100409.63
2023-05-17T11:47:31.343Z,100393.97
2023-05-17T11:50:02.821Z,100396.34
2023-05-17T11:52:31.048Z,100394.84
2023-05-17T11:54:58.816Z,100401.25
2023-05-17T11:57:30.788Z,100405.94
2023-05-17T12:00:01.862Z,100408.16
2023-05-17T12:02:31.822Z,100405.44
2023-05-17T12:04:58.911Z,100394.97
2023-05-17T12:07:26.275Z,100390.69
2023-05-17T12:09:52.952Z,100393.97
2023-05-17T12:12:21.874Z,100398.25
2023-05-17T12:14:48.668Z,100404.13
2023-05-17T12:17:28.261Z,100401.63
2023-05-17T12:19:55.301Z,100404.34
2023-05-17T12:22:21.912Z,100402.06
2023-05-17T12:24:48.666Z,100390.38
2023-05-17T12:27:25.536Z,100386.59
2023-05-17T12:29:51.935Z,100394.44
2023-05-17T12:32:18.612Z,100399.06
2023-05-17T12:34:45.959Z,100392.72
2023-05-17T12:37:13.117Z,100395.13
2023-05-17T12:39:40.487Z,100395.63
2023-05-17T12:42:07.743Z,100395.06
2023-05-17T12:44:34.098Z,100391.34
2023-05-17T12:47:02.493Z,100389.75
2023-05-17T12:49:28.823Z,100381.31
2023-05-17T12:51:55.201Z,100389.91
2023-05-17T12:54:28.260Z,100384.25
2023-05-17T12:56:55.355Z,100383.63
2023-05-17T12:59:24.950Z,100377.84
2023-05-17T13:01:53.520Z,100384.44
2023-05-17T13:04:27.989Z,100372.00
2023-05-17T13:06:59.775Z,100384.59
2023-05-17T13:09:30.625Z,100387.75
2023-05-17T13:11:58.951Z,100382.94
2023-05-17T13:14:45.635Z,100370.53
2023-05-17T13:17:27.144Z,100376.09
2023-05-17T13:19:56.337Z,100363.13
2023-05-17T13:22:24.945Z,100371.28
2023-05-17T13:24:51.295Z,100373.56
2023-05-17T13:27:17.719Z,100367.81
2023-05-17T13:29:44.185Z,100364.66
2023-05-17T13:32:12.925Z,100362.97
2023-05-17T13:34:40.465Z,100362.75
2023-05-17T13:37:11.105Z,100371.94
2023-05-17T13:39:38.302Z,100353.91
2023-05-17T13:42:05.389Z,100358.03
2023-05-17T13:44:31.890Z,100359.44
2023-05-17T13:46:58.219Z,100352.00
2023-05-17T13:49:24.636Z,100353.09
2023-05-17T13:51:51.001Z,100341.44
2023-05-17T13:54:19.992Z,100343.16
2023-05-17T13:56:46.673Z,100345.41
2023-05-17T13:59:13.054Z,100342.38
2023-05-17T14:01:40.908Z,100344.41
2023-05-17T14:04:07.480Z,100336.47
2023-05-17T14:06:33.925Z,100347.94
2023-05-17T14:09:00.827Z,100338.63
2023-05-17T14:11:27.402Z,100340.00
2023-05-17T14:13:53.777Z,100334.78
2023-05-17T14:16:22.107Z,100338.53
2023-05-17T14:18:48.657Z,100330.97
2023-05-17T14:21:15.249Z,100335.56
2023-05-17T14:23:41.623Z,100335.19
2023-05-17T14:26:09.212Z,100334.97
2023-05-17T14:28:38.965Z,100335.78
2023-05-17T14:31:09.831Z,100331.66
2023-05-17T14:33:36.483Z,100336.25
2023-05-17T14:36:03.916Z,100329.16
2023-05-17T14:38:30.484Z,100330.13
2023-05-17T14:40:57.870Z,100317.75
2023-05-17T14:43:24.494Z,100323.28
2023-05-17T14:45:51.097Z,100321.41
2023-05-17T14:48:17.535Z,100324.41
2023-05-17T14:50:43.922Z,100322.41
2023-05-17T14:53:10.293Z,100318.97
2023-05-17T14:55:36.727Z,100323.44
2023-05-17T14:58:03.166Z,100331.38
2023-05-17T15:00:29.684Z,100328.16
2023-05-17T15:02:56.168Z,100325.78
2023-05-17T15:05:22.788Z,100324.69
2023-05-17T15:07:49.280Z,100320.91
2023-05-17T15:10:15.865Z,100332.56
2023-05-17T15:12:42.213Z,100329.91
2023-05-17T15:15:09.077Z,100321.31
2023-05-17T15:17:35.467Z,100327.78
2023-05-17T15:20:01.972Z,100318.97
2023-05-17T15:22:29.144Z,100322.63
2023-05-17T15:24:57.612Z,100323.63
2023-05-17T15:27:24.020Z,100319.56
2023-05-17T15:29:50.461Z,100311.72
2023-05-17T15:32:16.855Z,100314.56
2023-05-17T15:34:43.268Z,100321.31
2023-05-17T15:37:09.990Z,100315.28
2023-05-17T15:39:36.430Z,100313.91
2023-05-17T15:42:03.683Z,100309.84
2023-05-17T15:44:30.467Z,100310.13
2023-05-17T15:46:56.988Z,100320.38
2023-05-17T15:49:23.419Z,100316.63
2023-05-17T15:51:49.812Z,100310.47
2023-05-17T15:54:16.243Z,100316.91
2023-05-17T15:56:42.653Z,100326.50
2023-05-17T15:59:09.026Z,100316.38
2023-05-17T16:01:35.485Z,100320.03
2023-05-17T16:04:01.960Z,100322.84
2023-05-17T16:06:34.545Z,100317.66
2023-05-17T16:09:01.664Z,100317.50
2023-05-17T16:11:28.061Z,100317.94
2023-05-17T16:13:54.413Z,100325.25
2023-05-17T16:16:20.770Z,100315.56
2023-05-17T16:18:47.305Z,100317.94
2023-05-17T16:21:14.155Z,100324.53
2023-05-17T16:23:40.702Z,100321.16
2023-05-17T16:26:07.125Z,100324.00
2023-05-17T16:28:35.388Z,100329.44
2023-05-17T16:31:03.619Z,100331.13
2023-05-17T16:33:30.095Z,100327.34
2023-05-17T16:35:57.790Z,100324.00
2023-05-17T16:38:25.390Z,100323.72
2023-05-17T16:40:51.816Z,100320.88
2023-05-17T16:43:18.151Z,100338.31
2023-05-17T16:45:44.920Z,100336.75
2023-05-17T16:48:15.099Z,100336.75
2023-05-17T16:50:42.393Z,100332.81
2023-05-17T16:53:08.995Z,100333.09
2023-05-17T16:55:36.242Z,100338.41
2023-05-17T16:58:02.794Z,100332.38
2023-05-17T17:00:29.989Z,100335.19
2023-05-17T17:02:58.337Z,100345.88
2023-05-17T17:05:25.078Z,100346.84
2023-05-17T17:07:51.559Z,100347.81
2023-05-17T17:10:19.838Z,100342.06
2023-05-17T17:12:47.135Z,100344.75
2023-05-17T17:15:13.935Z,100342.06
2023-05-17T17:17:40.350Z,100334.34
2023-05-17T17:20:08.976Z,100347.38
2023-05-17T17:22:35.768Z,100345.81
2023-05-17T17:25:02.113Z,100348.31
2023-05-17T17:27:28.535Z,100352.25
2023-05-17T17:29:55.555Z,100353.38
2023-05-17T17:32:21.998Z,100353.66
2023-05-17T17:34:48.448Z,100351.69
2023-05-17T17:37:14.881Z,100356.00
2023-05-17T17:39:41.998Z,100359.94
2023-05-17T17:42:09.679Z,100357.81
2023-05-17T17:44:36.065Z,100363.69
2023-05-17T17:47:02.523Z,100367.19
2023-05-17T17:49:29.966Z,100362.56
2023-05-17T17:51:57.927Z,100367.84
2023-05-17T17:54:24.328Z,100368.97
2023-05-17T17:56:50.660Z,100369.13
2023-05-17T17:59:16.985Z,100377.47
2023-05-17T18:01:43.574Z,100380.44
2023-05-17T18:04:10.999Z,100380.56
2023-05-17T18:06:37.486Z,100384.06
2023-05-17T18:09:03.876Z,100367.91
2023-05-17T18:11:30.408Z,100387.16
2023-05-17T18:13:56.782Z,100391.88
2023-05-17T18:16:23.279Z,100390.22
2023-05-17T18:18:49.690Z,100384.75
2023-05-17T18:21:16.133Z,100389.34
2023-05-17T18:23:42.551Z,100394.06
2023-05-17T18:26:09.031Z,100392.16
2023-05-17T18:28:42.585Z,100400.31
2023-05-17T18:31:09.714Z,100400.56
2023-05-17T18:33:36.370Z,100399.66
2023-05-17T18:36:02.903Z,100400.88
2023-05-17T18:38:29.293Z,100407.63
2023-05-17T18:40:55.766Z,100404.81
2023-05-17T18:43:22.160Z,100405.50
2023-05-17T18:45:48.490Z,100405.06
2023-05-17T18:48:14.926Z,100405.78
2023-05-17T18:50:41.321Z,100406.66
2023-05-17T18:53:07.766Z,100407.78
2023-05-17T18:55:34.140Z,100415.50
2023-05-17T18:58:00.602Z,100419.00
2023-05-17T19:00:27.193Z,100418.91
2023-05-17T19:02:53.655Z,100425.25
2023-05-17T19:05:20.217Z,100425.50
2023-05-17T19:07:46.578Z,100428.09
2023-05-17T19:10:12.970Z,100438.44
2023-05-17T19:12:39.530Z,100424.22
2023-05-17T19:15:06.315Z,100437.91
2023-05-17T19:17:32.809Z,100440.59
2023-05-17T19:19:59.290Z,100434.06
2023-05-17T19:22:25.637Z,100436.88
2023-05-17T19:24:52.044Z,100445.81
2023-05-17T19:27:19.674Z,100444.47
2023-05-17T19:29:46.942Z,100454.63
2023-05-17T19:32:13.523Z,100450.25
2023-05-17T19:34:39.992Z,100456.44
2023-05-17T19:37:06.470Z,100458.72
2023-05-17T19:39:32.897Z,100464.50
2023-05-17T19:41:59.261Z,100471.78
2023-05-17T19:44:25.810Z,100471.28
2023-05-17T19:46:52.309Z,100471.75
2023-05-17T19:49:18.687Z,100469.31
2023-05-17T19:51:46.595Z,100471.22
2023-05-17T19:54:12.980Z,100479.81
2023-05-17T19:56:39.513Z,100480.41
2023-05-17T19:59:06.105Z,100476.53
2023-05-17T20:01:32.532Z,100481.13
2023-05-17T20:03:59.118Z,100491.81
2023-05-17T20:06:25.793Z,100488.22
2023-05-17T20:08:52.186Z,100478.34
2023-05-17T20:11:18.608Z,100490.47
2023-05-17T20:13:44.980Z,100497.75
2023-05-17T20:16:14.526Z,100495.59
2023-05-17T20:18:44.510Z,100502.72
2023-05-17T20:21:19.383Z,100503.09
2023-05-17T20:23:46.693Z,100507.28
2023-05-17T20:26:17.035Z,100523.81
2023-05-17T20:28:44.858Z,100503.91
2023-05-17T20:31:11.583Z,100504.13
2023-05-17T20:33:37.933Z,100509.94
2023-05-17T20:36:04.508Z,100521.13
2023-05-17T20:38:30.928Z,100515.91
2023-05-17T20:40:58.190Z,100517.59
2023-05-17T20:43:28.654Z,100522.91
2023-05-17T20:45:55.514Z,100524.25
2023-05-17T20:48:21.882Z,100525.06
2023-05-17T20:50:48.926Z,100526.69
2023-05-17T20:53:15.325Z,100522.78
2023-05-17T20:55:44.137Z,100536.66
2023-05-17T20:58:11.176Z,100530.72
2023-05-17T21:00:38.218Z,100535.75
2023-05-17T21:03:04.722Z,100533.81
2023-05-17T21:05:35.897Z,100535.06
2023-05-17T21:08:02.542Z,100537.38
2023-05-17T21:10:29.342Z,100535.47
2023-05-17T21:12:55.935Z,100535.50
2023-05-17T21:15:22.316Z,100537.41
2023-05-17T21:17:49.225Z,100527.09
2023-05-17T21:20:15.812Z,100538.25
2023-05-17T21:22:42.314Z,100540.88
2023-05-17T21:25:09.184Z,100540.53
2023-05-17T21:27:35.634Z,100543.47
2023-05-17T21:30:02.089Z,100547.69
2023-05-17T21:32:28.533Z,100541.28
2023-05-17T21:34:54.963Z,100546.25
2023-05-17T21:37:21.379Z,100552.16
2023-05-17T21:39:47.757Z,100549.09
2023-05-17T21:42:14.180Z,100553.88
2023-05-17T21:44:40.739Z,100555.69
2023-05-17T21:47:07.176Z,100561.50
2023-05-17T21:49:33.603Z,100549.81
2023-05-17T21:52:00.054Z,100554.06
2023-05-17T21:54:26.502Z,100547.00
2023-05-17T21:56:52.885Z,100554.78
2023-05-17T21:59:19.264Z,100552.63
2023-05-17T22:01:45.729Z,100541.34
2023-05-17T22:04:12.232Z,100551.03
2023-05-17T22:06:38.558Z,100545.00
2023-05-17T22:09:06.888Z,100546.75
2023-05-17T22:11:33.786Z,100542.81
2023-05-17T22:14:00.191Z,100548.16
2023-05-17T22:16:26.622Z,100542.50
2023-05-17T22:18:53.171Z,100552.25
2023-05-17T22:21:19.738Z,100547.44
2023-05-17T22:23:46.385Z,100545.47
2023-05-17T22:26:12.837Z,100548.84
2023-05-17T22:28:39.198Z,100551.38
2023-05-17T22:31:07.487Z,100543.19
2023-05-17T22:33:35.573Z,100550.28
2023-05-17T22:36:03.504Z,100544.72
2023-05-17T22:38:29.884Z,100542.47
2023-05-17T22:40:56.271Z,100544.63
2023-05-17T22:43:22.698Z,100550.09
2023-05-17T22:45:49.984Z,100549.63
2023-05-17T22:48:16.392Z,100546.06
2023-05-17T22:50:42.807Z,100554.25
2023-05-17T22:53:11.121Z,100555.47
2023-05-17T22:55:37.517Z,100555.47
2023-05-17T22:58:03.882Z,100551.44
2023-05-17T23:00:30.229Z,100558.31
2023-05-17T23:02:56.769Z,100563.19
2023-05-17T23:05:23.385Z,100550.66
2023-05-17T23:07:49.821Z,100559.84
2023-05-17T23:10:16.208Z,100551.31
2023-05-17T23:12:42.614Z,100557.53
2023-05-17T23:15:09.439Z,100558.75
2023-05-17T23:17:36.353Z,100557.16
2023-05-17T23:20:09.869Z,100556.94
2023-05-17T23:22:36.981Z,100549.06
2023-05-17T23:25:03.458Z,100562.50
2023-05-17T23:27:30.096Z,100560.41
2023-05-17T23:29:56.734Z,100555.13
2023-05-17T23:32:23.454Z,100554.00
2023-05-17T23:34:50.346Z,100556.25
2023-05-17T23:37:16.873Z,100562.56
2023-05-17T23:39:43.274Z,100558.44
2023-05-17T23:42:10.199Z,100557.41
2023-05-17T23:44:48.665Z,100560.34
2023-05-17T23:47:15.631Z,100554.72
2023-05-17T23:49:41.996Z,100553.59
2023-05-17T23:52:11.399Z,100551.75
2023-05-17T23:54:38.759Z,100564.50
2023-05-17T23:57:05.768Z,100554.81
2023-05-17T23:59:33.055Z,100552.84
